createdAt,value
2023-06-25T11:12:54.421Z,1017.9946800585362
2023-06-25T11:20:43.127Z,1017.9294958198
2023-06-25T11:28:14.176Z,1017.870881693679
2023-06-25T11:36:01.675Z,1017.8459514399674
2023-06-25T11:45:07.133Z,1017.7376115019297
2023-06-25T11:52:51.251Z,1017.662657954259
2023-06-25T12:02:11.924Z,1017.6487504355639
2023-06-25T12:42:07.515Z,1017.155951308275
2023-06-25T12:48:32.950Z,1017.0931847192198
2023-06-25T12:59:33.644Z,1017.0591052869984
2023-06-25T13:11:24.721Z,1016.9685069512917
2023-06-25T13:17:50.028Z,1016.9073646669381
2023-06-25T13:24:15.835Z,1016.8563038900804
2023-06-25T13:30:40.901Z,1016.7921295573352
2023-06-25T13:40:02.285Z,1016.7222944705342
2023-06-25T13:46:28.262Z,1016.6680057588949
2023-06-25T13:52:53.036Z,1016.6055044113511
2023-06-25T13:59:18.361Z,1016.5130098462553
2023-06-25T14:11:53.807Z,1016.3595223850554
2023-06-25T14:18:18.907Z,1016.2747830932817
2023-06-25T14:24:44.955Z,1016.241227642357
2023-06-25T14:33:57.413Z,1016.1804056992746
2023-06-25T14:41:14.377Z,1016.1408964887623
2023-06-25T14:48:03.927Z,1016.1084680098372
2023-06-25T14:54:31.312Z,1016.0578715600527
2023-06-25T15:00:57.964Z,1016.0114760543379
2023-06-25T15:07:25.897Z,1015.9548596643327
2023-06-25T15:13:51.941Z,1015.8568492328388
2023-06-25T15:21:47.228Z,1015.8052049486522
2023-06-25T15:28:13.390Z,1015.746357993707
2023-06-25T15:34:39.685Z,1015.6863128065196
2023-06-25T15:41:05.977Z,1015.6149359515325
2023-06-25T15:47:31.191Z,1015.5581502067437
2023-06-25T15:53:56.723Z,1015.5182560059242
2023-06-25T16:00:36.352Z,1015.4854026972291
2023-06-25T16:12:09.510Z,1015.3760145608576
2023-06-25T16:18:34.162Z,1015.2576915651667
2023-06-25T16:26:13.368Z,1015.1531317412715
2023-06-25T16:32:39.479Z,1015.0613981167504
2023-06-25T16:39:06.603Z,1015.0551108961033
2023-06-25T16:47:13.289Z,1014.9758974218756
2023-06-25T16:53:38.845Z,1014.9373086646258
2023-06-25T17:00:04.686Z,1014.8792504966087
2023-06-25T17:06:29.860Z,1014.8417493536849
2023-06-25T17:16:19.327Z,1014.7905214640818
2023-06-25T17:22:44.342Z,1014.7544592555229
2023-06-25T17:32:45.674Z,1014.704779598247
2023-06-25T17:39:10.822Z,1014.7130289904845
2023-06-25T17:51:14.650Z,1014.695243227113
2023-06-25T17:57:40.361Z,1014.697201099836
2023-06-25T18:04:06.036Z,1014.6967757443475
2023-06-25T18:10:31.728Z,1014.6300203276105
2023-06-25T18:22:55.857Z,1014.5665751468584
2023-06-25T18:29:22.013Z,1014.553214129892
2023-06-25T18:35:48.193Z,1014.5527931303027
2023-06-25T18:42:14.540Z,1014.5347241823272
2023-06-25T18:48:48.519Z,1014.4940354463296
2023-06-25T19:01:05.121Z,1014.4345380379239
2023-06-25T19:07:31.528Z,1014.4000639409171
2023-06-25T19:13:57.956Z,1014.3975710735917
2023-06-25T19:21:22.787Z,1014.3704863130473
2023-06-25T19:28:31.601Z,1014.380416790012
2023-06-25T19:35:21.410Z,1014.3796690736781
2023-06-25T19:41:58.814Z,1014.352063212841
2023-06-25T19:52:07.397Z,1014.408889216663
2023-06-25T20:00:47.456Z,1014.3956558467981
2023-06-25T20:08:42.660Z,1014.4232147641378
2023-06-25T20:16:34.056Z,1014.4449698265132
2023-06-25T20:28:16.938Z,1014.4085225369555
2023-06-25T20:35:13.408Z,1014.378132795375
2023-06-25T20:41:47.253Z,1014.3641806434599
2023-06-25T20:56:33.626Z,1014.3421091723894
2023-06-25T21:07:34.186Z,1014.3729696758236
2023-06-25T21:16:13.053Z,1014.3513692355605
2023-06-25T21:29:12.114Z,1014.2612287153751
2023-06-25T21:36:03.911Z,1014.2181215915106
2023-06-25T21:42:32.814Z,1014.1986597692733
2023-06-25T21:50:37.308Z,1014.1658822272881
2023-06-25T21:57:06.323Z,1014.1678107898751
2023-06-25T22:07:38.143Z,1014.1585301807007
2023-06-25T22:16:26.659Z,1014.1207513018107
2023-06-25T22:28:44.256Z,1014.1130099306268
2023-06-25T22:35:13.627Z,1014.1019603950185
2023-06-25T22:41:43.020Z,1014.0612619501234
2023-06-25T22:53:07.329Z,1014.0486531923566
2023-06-25T23:00:53.414Z,1013.9794998558598
2023-06-25T23:13:27.758Z,1013.8380129562738
2023-06-25T23:21:39.288Z,1013.7455923972456
2023-06-25T23:28:08.177Z,1013.6678112905154
2023-06-25T23:34:37.491Z,1013.5926757293839
2023-06-25T23:43:23.200Z,1013.5003222521906
2023-06-25T23:52:35.368Z,1013.427264618275
2023-06-25T23:59:04.090Z,1013.4125931668043
